createdAt,value
2022-08-17T00:00:42.944Z,20.60
2022-08-17T00:03:13.607Z,20.60
2022-08-17T00:05:47.099Z,20.59
2022-08-17T00:08:17.102Z,20.56
2022-08-17T00:10:46.593Z,20.52
2022-08-17T00:13:29.406Z,20.48
2022-08-17T00:16:01.488Z,20.48
2022-08-17T00:19:01.182Z,20.48
2022-08-17T00:21:25.165Z,20.49
2022-08-17T00:23:53.705Z,20.53
2022-08-17T00:26:43.755Z,20.53
2022-08-17T00:29:10.564Z,20.45
2022-08-17T00:31:48.626Z,20.26
2022-08-17T00:34:16.997Z,20.14
2022-08-17T00:36:44.819Z,20.01
2022-08-17T00:39:12.427Z,19.90
2022-08-17T00:41:42.164Z,19.84
2022-08-17T00:44:11.928Z,19.85
2022-08-17T00:46:42.732Z,19.89
2022-08-17T00:49:13.023Z,19.95
2022-08-17T00:51:59.697Z,20.01
2022-08-17T00:54:33.276Z,20.03
2022-08-17T00:57:13.685Z,19.93
2022-08-17T00:59:47.044Z,19.86
2022-08-17T01:02:36.690Z,19.78
2022-08-17T01:05:14.939Z,19.73
2022-08-17T01:07:43.503Z,19.69
2022-08-17T01:10:58.953Z,19.63
2022-08-17T01:13:04.547Z,19.55
2022-08-17T01:15:36.648Z,19.45
2022-08-17T01:18:08.728Z,19.44
2022-08-17T01:20:48.410Z,19.44
2022-08-17T01:23:20.618Z,19.39
2022-08-17T01:25:54.952Z,19.34
2022-08-17T01:28:52.637Z,19.29
2022-08-17T01:31:12.526Z,19.25
2022-08-17T01:33:40.500Z,19.24
2022-08-17T01:36:08.822Z,19.23
2022-08-17T01:38:38.298Z,19.24
2022-08-17T01:41:11.656Z,19.26
2022-08-17T01:43:49.206Z,19.27
2022-08-17T01:46:27.927Z,19.32
2022-08-17T01:48:57.442Z,19.41
2022-08-17T01:51:32.391Z,19.46
2022-08-17T01:54:06.576Z,19.51
2022-08-17T01:56:37.407Z,19.57
2022-08-17T01:59:05.300Z,19.62
2022-08-17T02:01:34.722Z,19.65
2022-08-17T02:04:04.291Z,19.70
2022-08-17T02:06:45.097Z,19.77
2022-08-17T02:09:25.491Z,19.86
2022-08-17T02:11:56.931Z,19.95
2022-08-17T02:14:25.834Z,19.99
2022-08-17T02:16:54.078Z,20.02
2022-08-17T02:19:22.418Z,20.02
2022-08-17T02:21:52.034Z,20.02
2022-08-17T02:24:58.170Z,20.02
2022-08-17T02:27:25.686Z,20.00
2022-08-17T02:29:53.517Z,19.94
2022-08-17T02:32:27.863Z,19.88
2022-08-17T02:34:58.078Z,19.83
2022-08-17T02:37:27.538Z,19.78
2022-08-17T02:39:59.484Z,19.71
2022-08-17T02:42:31.465Z,19.62
2022-08-17T02:45:00.621Z,19.55
2022-08-17T02:47:29.098Z,19.49
2022-08-17T02:49:56.995Z,19.47
2022-08-17T02:52:42.496Z,19.44
2022-08-17T02:55:15.940Z,19.43
2022-08-17T02:57:44.317Z,19.44
2022-08-17T03:00:17.132Z,19.47
2022-08-17T03:02:45.493Z,19.49
2022-08-17T03:05:17.134Z,19.51
2022-08-17T03:07:44.806Z,19.50
2022-08-17T03:10:13.471Z,19.46
2022-08-17T03:12:43.171Z,19.43
2022-08-17T03:15:20.619Z,19.33
2022-08-17T03:17:49.165Z,19.25
2022-08-17T03:20:17.151Z,19.22
2022-08-17T03:22:53.152Z,19.19
2022-08-17T03:25:25.499Z,19.18
2022-08-17T03:27:53.691Z,19.16
2022-08-17T03:30:22.963Z,19.14
2022-08-17T03:32:54.719Z,19.14
2022-08-17T03:35:25.788Z,19.14
2022-08-17T03:38:00.297Z,19.16
2022-08-17T03:40:39.866Z,19.17
2022-08-17T03:43:19.842Z,19.17
2022-08-17T03:46:02.413Z,19.20
2022-08-17T03:48:46.254Z,19.22
2022-08-17T03:51:33.485Z,19.22
2022-08-17T03:54:17.628Z,19.23
2022-08-17T03:57:13.443Z,19.25
2022-08-17T03:59:42.327Z,19.28
2022-08-17T04:02:19.464Z,19.30
2022-08-17T04:04:50.590Z,19.34
2022-08-17T04:07:20.681Z,19.36
2022-08-17T04:09:48.735Z,19.39
2022-08-17T04:12:18.875Z,19.43
2022-08-17T04:14:52.076Z,19.47
2022-08-17T04:17:24.735Z,19.49
2022-08-17T04:19:53.668Z,19.50
2022-08-17T04:22:32.656Z,19.50
2022-08-17T04:25:14.342Z,19.52
2022-08-17T04:27:42.341Z,19.54
2022-08-17T04:30:10.651Z,19.56
2022-08-17T04:33:04.699Z,19.60
2022-08-17T04:35:38.884Z,19.68
2022-08-17T04:38:08.518Z,19.72
2022-08-17T04:40:52.572Z,19.77
2022-08-17T04:43:22.340Z,19.81
2022-08-17T04:45:56.268Z,19.81
2022-08-17T04:48:29.844Z,19.84
2022-08-17T04:51:11.379Z,19.90
2022-08-17T04:53:40.932Z,19.98
2022-08-17T04:56:11.809Z,20.07
2022-08-17T04:58:46.750Z,20.17
2022-08-17T05:01:16.316Z,20.27
2022-08-17T05:03:56.514Z,20.38
2022-08-17T05:06:25.292Z,20.47
2022-08-17T05:08:53.730Z,20.57
2022-08-17T05:11:22.791Z,20.67
2022-08-17T05:13:50.572Z,20.78
2022-08-17T05:16:21.188Z,20.90
2022-08-17T05:18:49.301Z,21.00
2022-08-17T05:21:18.012Z,21.12
2022-08-17T05:23:50.346Z,21.21
2022-08-17T05:26:26.402Z,21.32
2022-08-17T05:28:57.259Z,21.39
2022-08-17T05:31:29.344Z,21.47
2022-08-17T05:33:58.111Z,21.58
2022-08-17T05:36:42.267Z,21.67
2022-08-17T05:39:16.319Z,21.76
2022-08-17T05:41:47.720Z,21.84
2022-08-17T05:44:16.988Z,21.90
2022-08-17T05:46:53.742Z,21.95
2022-08-17T05:49:27.436Z,22.00
2022-08-17T05:52:20.619Z,22.06
2022-08-17T05:55:30.448Z,22.16
2022-08-17T05:58:24.765Z,22.26
2022-08-17T06:01:17.607Z,22.33
2022-08-17T06:03:59.318Z,22.40
2022-08-17T06:06:58.081Z,22.50
2022-08-17T06:09:33.462Z,22.62
2022-08-17T06:12:32.033Z,22.71
2022-08-17T06:15:01.282Z,22.77
2022-08-17T06:17:30.023Z,22.84
2022-08-17T06:20:03.296Z,22.88
2022-08-17T06:22:38.067Z,22.95
2022-08-17T06:25:22.502Z,23.04
2022-08-17T06:27:56.578Z,23.15
2022-08-17T06:30:58.550Z,23.25
2022-08-17T06:33:22.439Z,23.34
2022-08-17T06:36:17.764Z,23.43
2022-08-17T06:39:17.511Z,23.53
2022-08-17T06:42:09.522Z,23.62
2022-08-17T06:45:17.937Z,23.67
2022-08-17T06:48:04.342Z,23.73
2022-08-17T06:50:40.628Z,23.77
2022-08-17T06:53:30.180Z,23.82
2022-08-17T06:56:19.648Z,23.86
2022-08-17T06:58:48.236Z,23.92
2022-08-17T07:01:24.796Z,23.96
2022-08-17T07:04:05.170Z,24.02
2022-08-17T07:06:48.876Z,24.09
2022-08-17T07:09:37.367Z,24.15
2022-08-17T07:12:16.005Z,24.22
2022-08-17T07:14:58.602Z,24.30
2022-08-17T07:17:47.058Z,24.37
2022-08-17T07:20:22.747Z,24.43
2022-08-17T07:23:08.990Z,24.51
2022-08-17T07:25:36.683Z,24.58
2022-08-17T07:28:07.374Z,24.63
2022-08-17T07:30:45.789Z,24.68
2022-08-17T07:33:19.920Z,24.75
2022-08-17T07:35:49.852Z,24.78
2022-08-17T07:38:28.132Z,24.84
2022-08-17T07:41:02.320Z,24.89
2022-08-17T07:43:31.212Z,24.94
2022-08-17T07:46:31.082Z,24.97
2022-08-17T07:49:17.466Z,25.04
2022-08-17T07:51:47.911Z,25.09
2022-08-17T07:54:15.640Z,25.12
2022-08-17T07:56:49.953Z,25.15
2022-08-17T07:59:30.000Z,25.17
2022-08-17T08:02:28.974Z,25.23
2022-08-17T08:05:06.741Z,25.28
2022-08-17T08:07:52.276Z,25.33
2022-08-17T08:10:38.767Z,25.40
2022-08-17T08:13:29.525Z,25.46
2022-08-17T08:16:31.350Z,25.52
2022-08-17T08:19:01.402Z,25.58
2022-08-17T08:21:36.552Z,25.63
2022-08-17T08:24:10.771Z,25.67
2022-08-17T08:26:48.987Z,25.72
2022-08-17T08:29:35.590Z,25.81
2022-08-17T08:32:11.253Z,25.89
2022-08-17T08:35:02.715Z,25.92
2022-08-17T08:38:02.226Z,25.96
2022-08-17T08:40:57.033Z,26.05
2022-08-17T08:43:43.590Z,26.12
2022-08-17T08:46:20.119Z,26.20
2022-08-17T08:49:12.423Z,26.26
2022-08-17T08:51:56.201Z,26.35
2022-08-17T08:54:55.770Z,26.41
2022-08-17T08:57:34.557Z,26.47
2022-08-17T09:00:12.510Z,26.50
2022-08-17T09:03:05.151Z,26.50
2022-08-17T09:06:06.054Z,26.49
2022-08-17T09:09:36.305Z,26.52
2022-08-17T09:12:19.956Z,26.57
2022-08-17T09:14:57.819Z,26.62
2022-08-17T09:17:47.996Z,26.68
2022-08-17T09:20:27.164Z,26.78
2022-08-17T09:23:03.264Z,26.90
2022-08-17T09:25:34.880Z,26.93
2022-08-17T09:28:20.766Z,26.95
2022-08-17T09:30:53.011Z,26.98
2022-08-17T09:33:28.684Z,27.03
2022-08-17T09:36:15.605Z,27.10
2022-08-17T09:39:05.183Z,27.10
2022-08-17T09:41:48.523Z,27.07
2022-08-17T09:44:31.060Z,27.05
2022-08-17T09:47:19.651Z,27.07
2022-08-17T09:49:55.051Z,27.12
2022-08-17T09:52:30.349Z,27.20
2022-08-17T09:55:00.146Z,27.30
2022-08-17T09:57:43.897Z,27.40
2022-08-17T10:00:27.249Z,27.50
2022-08-17T10:03:11.693Z,27.55
2022-08-17T10:05:49.084Z,27.60
2022-08-17T10:08:37.450Z,27.70
2022-08-17T10:11:53.021Z,27.82
2022-08-17T10:14:53.451Z,27.99
2022-08-17T10:17:55.523Z,28.15
2022-08-17T10:20:35.972Z,28.29
2022-08-17T10:23:28.958Z,28.42
2022-08-17T10:26:13.590Z,28.51
2022-08-17T10:29:00.204Z,28.52
2022-08-17T10:31:35.462Z,28.51
2022-08-17T10:34:41.184Z,28.49
2022-08-17T10:37:31.508Z,28.42
2022-08-17T10:40:21.227Z,28.39
2022-08-17T10:43:00.536Z,28.39
2022-08-17T10:45:35.238Z,28.44
2022-08-17T10:48:06.920Z,28.51
2022-08-17T10:50:57.621Z,28.60
2022-08-17T10:53:31.454Z,28.70
2022-08-17T10:56:16.097Z,28.81
2022-08-17T10:59:00.732Z,28.88
2022-08-17T11:01:34.250Z,28.96
2022-08-17T11:04:27.290Z,29.08
2022-08-17T11:07:03.975Z,29.16
2022-08-17T11:09:50.463Z,29.15
2022-08-17T11:12:40.164Z,29.11
2022-08-17T11:15:17.608Z,29.12
2022-08-17T11:18:17.341Z,29.24
2022-08-17T11:20:55.456Z,29.45
2022-08-17T11:23:39.831Z,29.70
2022-08-17T11:26:25.952Z,29.95
2022-08-17T11:29:01.384Z,30.08
2022-08-17T11:31:38.498Z,30.10
2022-08-17T11:34:19.050Z,30.08
2022-08-17T11:36:49.737Z,30.05
2022-08-17T11:39:36.820Z,29.97
2022-08-17T11:42:11.718Z,29.85
2022-08-17T11:44:51.288Z,29.77
2022-08-17T11:48:23.825Z,29.78
2022-08-17T11:51:22.407Z,29.85
2022-08-17T11:53:49.981Z,29.89
2022-08-17T11:56:51.065Z,29.91
2022-08-17T11:59:36.322Z,29.95
2022-08-17T12:02:31.438Z,29.97
2022-08-17T12:05:17.838Z,29.92
2022-08-17T12:08:08.489Z,29.81
2022-08-17T12:10:48.187Z,29.69
2022-08-17T12:13:18.584Z,29.62
2022-08-17T12:15:50.675Z,29.50
2022-08-17T12:18:25.779Z,29.35
2022-08-17T12:21:26.318Z,29.28
2022-08-17T12:24:00.797Z,29.45
2022-08-17T12:26:33.216Z,29.63
2022-08-17T12:29:06.314Z,29.97
2022-08-17T12:31:44.256Z,30.30
2022-08-17T12:34:16.919Z,30.28
2022-08-17T12:36:46.225Z,30.09
2022-08-17T12:39:21.358Z,29.89
2022-08-17T12:41:54.712Z,29.51
2022-08-17T12:44:28.026Z,29.01
2022-08-17T12:46:58.684Z,28.39
2022-08-17T12:49:35.460Z,27.82
2022-08-17T12:52:19.071Z,27.32
2022-08-17T12:55:11.013Z,26.87
2022-08-17T12:57:38.626Z,26.50
2022-08-17T13:00:17.387Z,26.30
2022-08-17T13:02:49.357Z,26.13
2022-08-17T13:05:37.659Z,25.98
2022-08-17T13:08:24.550Z,25.88
2022-08-17T13:10:58.222Z,25.80
2022-08-17T13:13:28.829Z,25.72
2022-08-17T13:16:14.230Z,25.66
2022-08-17T13:18:44.996Z,25.60
2022-08-17T13:21:19.975Z,25.53
2022-08-17T13:24:07.768Z,25.49
2022-08-17T13:26:54.579Z,25.50
2022-08-17T13:29:30.625Z,25.54
2022-08-17T13:32:04.806Z,25.56
2022-08-17T13:35:07.729Z,25.59
2022-08-17T13:37:32.517Z,25.59
2022-08-17T13:40:19.103Z,25.63
2022-08-17T13:42:52.886Z,25.72
2022-08-17T13:45:44.681Z,25.89
2022-08-17T13:48:15.400Z,26.33
2022-08-17T13:50:47.526Z,26.61
2022-08-17T13:53:35.394Z,27.18
2022-08-17T13:56:33.391Z,27.28
2022-08-17T13:59:53.643Z,27.22
2022-08-17T14:02:14.810Z,27.12
2022-08-17T14:04:44.436Z,27.11
2022-08-17T14:07:12.455Z,27.13
2022-08-17T14:09:41.859Z,27.16
2022-08-17T14:12:12.410Z,27.07
2022-08-17T14:14:42.504Z,27.04
2022-08-17T14:17:12.038Z,27.11
2022-08-17T14:19:40.078Z,27.12
2022-08-17T14:22:17.399Z,27.08
2022-08-17T14:24:45.745Z,27.03
2022-08-17T14:27:13.354Z,26.99
2022-08-17T14:29:41.202Z,26.96
2022-08-17T14:32:18.590Z,26.90
2022-08-17T14:34:47.376Z,26.81
2022-08-17T14:37:16.966Z,26.75
2022-08-17T14:39:49.580Z,26.68
2022-08-17T14:42:18.453Z,26.60
2022-08-17T14:44:46.094Z,26.53
2022-08-17T14:47:14.786Z,26.47
2022-08-17T14:49:43.543Z,26.40
2022-08-17T14:52:21.401Z,26.31
2022-08-17T14:54:53.645Z,26.19
2022-08-17T14:57:34.023Z,26.10
2022-08-17T15:00:03.977Z,26.04
2022-08-17T15:02:53.526Z,25.95
2022-08-17T15:05:27.306Z,25.85
2022-08-17T15:07:55.724Z,25.76
2022-08-17T15:10:25.912Z,25.63
2022-08-17T15:12:54.402Z,25.50
2022-08-17T15:15:22.688Z,25.39
2022-08-17T15:17:51.406Z,25.30
2022-08-17T15:20:23.942Z,25.24
2022-08-17T15:22:55.912Z,25.22
2022-08-17T15:25:27.498Z,25.20
2022-08-17T15:27:55.770Z,25.20
2022-08-17T15:30:25.866Z,25.22
2022-08-17T15:32:56.497Z,25.25
2022-08-17T15:35:29.099Z,25.30
2022-08-17T15:38:07.941Z,25.35
2022-08-17T15:40:44.370Z,25.44
2022-08-17T15:43:23.470Z,25.51
2022-08-17T15:46:01.668Z,25.58
2022-08-17T15:48:47.585Z,25.64
2022-08-17T15:51:17.836Z,25.71
2022-08-17T15:53:51.838Z,25.78
2022-08-17T15:56:19.992Z,25.84
2022-08-17T15:58:48.582Z,25.86
2022-08-17T16:02:15.404Z,25.96
2022-08-17T16:04:30.054Z,26.41
2022-08-17T16:06:55.605Z,26.99
2022-08-17T16:09:23.314Z,27.74
2022-08-17T16:11:53.847Z,28.16
2022-08-17T16:14:32.441Z,28.45
2022-08-17T16:17:04.627Z,28.80
2022-08-17T16:19:34.133Z,28.79
2022-08-17T16:22:02.670Z,28.73
2022-08-17T16:24:31.381Z,28.60
2022-08-17T16:26:59.271Z,28.41
2022-08-17T16:29:27.892Z,28.21
2022-08-17T16:31:56.715Z,28.06
2022-08-17T16:34:24.487Z,27.91
2022-08-17T16:36:55.744Z,27.74
2022-08-17T16:39:26.765Z,27.60
2022-08-17T16:41:56.021Z,27.44
2022-08-17T16:44:30.823Z,27.19
2022-08-17T16:47:00.720Z,26.79
2022-08-17T16:49:37.032Z,26.44
2022-08-17T16:52:11.080Z,26.15
2022-08-17T16:54:43.439Z,25.92
2022-08-17T16:57:13.099Z,25.76
2022-08-17T16:59:43.911Z,25.66
2022-08-17T17:02:23.469Z,25.60
2022-08-17T17:05:11.391Z,25.54
2022-08-17T17:08:12.780Z,25.46
2022-08-17T17:10:45.854Z,25.30
2022-08-17T17:13:31.027Z,25.19
2022-08-17T17:16:06.054Z,25.11
2022-08-17T17:18:47.970Z,25.08
2022-08-17T17:21:19.766Z,25.08
2022-08-17T17:23:56.080Z,25.10
2022-08-17T17:26:50.553Z,25.10
2022-08-17T17:29:48.784Z,25.09
2022-08-17T17:32:20.929Z,25.10
2022-08-17T17:35:00.773Z,25.12
2022-08-17T17:37:33.751Z,25.13
2022-08-17T17:40:15.435Z,25.12
2022-08-17T17:42:44.536Z,25.09
2022-08-17T17:45:25.725Z,25.06
2022-08-17T17:47:53.624Z,25.02
2022-08-17T17:50:40.079Z,24.96
2022-08-17T17:53:15.430Z,24.92
2022-08-17T17:55:51.769Z,24.90
2022-08-17T17:58:24.625Z,24.89
2022-08-17T18:01:24.259Z,24.89
2022-08-17T18:04:16.978Z,24.85
2022-08-17T18:07:04.736Z,24.78
2022-08-17T18:09:51.934Z,24.73
2022-08-17T18:12:37.630Z,24.63
2022-08-17T18:15:37.165Z,24.50
2022-08-17T18:18:37.880Z,24.35
2022-08-17T18:21:16.370Z,24.29
2022-08-17T18:24:02.072Z,24.29
2022-08-17T18:26:32.381Z,24.29
2022-08-17T18:29:02.469Z,24.31
2022-08-17T18:31:30.053Z,24.32
2022-08-17T18:34:45.780Z,24.32
2022-08-17T18:37:26.409Z,24.33
2022-08-17T18:39:54.175Z,24.31
2022-08-17T18:42:28.699Z,24.26
2022-08-17T18:44:56.431Z,24.20
2022-08-17T18:47:27.845Z,24.13
2022-08-17T18:50:19.484Z,24.02
2022-08-17T18:52:48.530Z,23.93
2022-08-17T18:55:22.497Z,23.86
2022-08-17T18:57:53.948Z,23.78
2022-08-17T19:00:39.268Z,23.73
2022-08-17T19:03:25.487Z,23.65
2022-08-17T19:06:21.932Z,23.58
2022-08-17T19:08:49.541Z,23.50
2022-08-17T19:11:23.866Z,23.45
2022-08-17T19:14:00.814Z,23.41
2022-08-17T19:16:54.014Z,23.36
2022-08-17T19:19:45.331Z,23.29
2022-08-17T19:22:28.511Z,23.23
2022-08-17T19:25:05.939Z,23.22
2022-08-17T19:27:49.199Z,23.20
2022-08-17T19:30:17.824Z,23.18
2022-08-17T19:32:45.754Z,23.17
2022-08-17T19:35:17.488Z,23.18
2022-08-17T19:38:22.078Z,23.18
2022-08-17T19:41:21.682Z,23.16
2022-08-17T19:44:11.507Z,23.16
2022-08-17T19:47:12.062Z,23.17
2022-08-17T19:49:52.235Z,23.18
2022-08-17T19:52:46.512Z,23.16
2022-08-17T19:55:24.522Z,23.10
2022-08-17T19:58:10.306Z,23.07
2022-08-17T20:00:47.718Z,23.04
2022-08-17T20:03:22.020Z,23.03
2022-08-17T20:06:12.219Z,23.01
2022-08-17T20:08:53.839Z,23.00
2022-08-17T20:11:33.319Z,22.97
2022-08-17T20:14:32.822Z,22.95
2022-08-17T20:17:03.021Z,22.92
2022-08-17T20:19:36.551Z,22.88
2022-08-17T20:22:11.776Z,22.84
2022-08-17T20:24:52.523Z,22.79
2022-08-17T20:27:47.761Z,22.73
2022-08-17T20:30:23.963Z,22.69
2022-08-17T20:32:55.446Z,22.66
2022-08-17T20:35:35.387Z,22.63
2022-08-17T20:38:07.029Z,22.60
2022-08-17T20:40:36.637Z,22.58
2022-08-17T20:43:43.098Z,22.55
2022-08-17T20:46:26.747Z,22.49
2022-08-17T20:49:21.695Z,22.50
2022-08-17T20:52:08.354Z,22.50
2022-08-17T20:54:57.898Z,22.45
2022-08-17T20:57:34.294Z,22.40
2022-08-17T21:00:33.883Z,22.37
2022-08-17T21:03:49.176Z,22.33
2022-08-17T21:06:21.230Z,22.29
2022-08-17T21:09:13.077Z,22.26
2022-08-17T21:12:02.797Z,22.25
2022-08-17T21:15:03.612Z,22.23
2022-08-17T21:17:43.409Z,22.20
2022-08-17T21:20:39.579Z,22.16
2022-08-17T21:23:26.102Z,22.11
2022-08-17T21:26:17.418Z,22.07
2022-08-17T21:29:30.402Z,22.04
2022-08-17T21:32:01.604Z,22.03
2022-08-17T21:34:35.868Z,22.03
2022-08-17T21:37:42.000Z,22.00
2022-08-17T21:40:18.739Z,21.94
2022-08-17T21:42:50.518Z,21.90
2022-08-17T21:45:22.194Z,21.85
2022-08-17T21:48:19.526Z,21.80
2022-08-17T21:51:10.211Z,21.76
2022-08-17T21:53:44.640Z,21.72
2022-08-17T21:56:22.051Z,21.70
2022-08-17T21:58:57.159Z,21.68
2022-08-17T22:01:42.857Z,21.65
2022-08-17T22:04:11.552Z,21.61
2022-08-17T22:06:56.685Z,21.59
2022-08-17T22:09:46.888Z,21.54
2022-08-17T22:12:22.064Z,21.50
2022-08-17T22:14:54.213Z,21.44
2022-08-17T22:17:39.988Z,21.40
2022-08-17T22:20:11.471Z,21.37
2022-08-17T22:23:14.964Z,21.33
2022-08-17T22:26:06.070Z,21.31
2022-08-17T22:28:49.845Z,21.28
2022-08-17T22:31:26.678Z,21.26
2022-08-17T22:34:14.350Z,21.20
2022-08-17T22:36:42.540Z,21.14
2022-08-17T22:39:10.173Z,21.11
2022-08-17T22:41:55.643Z,21.08
2022-08-17T22:44:29.954Z,21.05
2022-08-17T22:47:13.470Z,21.05
2022-08-17T22:49:53.797Z,21.05
2022-08-17T22:52:56.113Z,21.04
2022-08-17T22:55:40.379Z,21.05
2022-08-17T22:58:30.958Z,21.02
2022-08-17T23:01:23.056Z,20.98
2022-08-17T23:04:03.981Z,20.94
2022-08-17T23:06:33.773Z,20.89
2022-08-17T23:09:04.016Z,20.85
2022-08-17T23:11:48.736Z,20.83
2022-08-17T23:14:19.751Z,20.82
2022-08-17T23:16:49.978Z,20.81
2022-08-17T23:19:20.798Z,20.80
2022-08-17T23:21:53.697Z,20.78
2022-08-17T23:24:27.464Z,20.73
2022-08-17T23:26:57.378Z,20.69
2022-08-17T23:29:29.154Z,20.66
2022-08-17T23:31:59.938Z,20.62
2022-08-17T23:34:28.341Z,20.61
2022-08-17T23:36:56.010Z,20.60
2022-08-17T23:39:28.066Z,20.59
2022-08-17T23:41:58.712Z,20.55
2022-08-17T23:44:28.636Z,20.52
2022-08-17T23:46:57.213Z,20.50
2022-08-17T23:49:25.220Z,20.48
2022-08-17T23:51:56.551Z,20.47
2022-08-17T23:54:43.779Z,20.45
2022-08-17T23:57:13.494Z,20.42
2022-08-17T23:59:43.700Z,20.41
